createdAt,value
2023-03-06T00:00:05.355Z,99840.84
2023-03-06T00:00:44.805Z,99841.69
2023-03-06T00:01:18.496Z,99846.00
2023-03-06T00:01:50.726Z,99851.88
2023-03-06T00:02:22.460Z,99845.88
2023-03-06T00:02:54.119Z,99840.00
2023-03-06T00:03:28.088Z,99850.13
2023-03-06T00:03:59.914Z,99845.03
2023-03-06T00:04:31.549Z,99845.88
2023-03-06T00:05:03.547Z,99844.19
2023-03-06T00:05:35.315Z,99850.19
2023-03-06T00:06:07.492Z,99846.72
2023-03-06T00:06:39.236Z,99849.19
2023-03-06T00:07:10.853Z,99843.19
2023-03-06T00:07:43.446Z,99844.88
2023-03-06T00:08:15.528Z,99837.06
2023-03-06T00:08:47.217Z,99842.28
2023-03-06T00:09:18.865Z,99837.06
2023-03-06T00:09:50.552Z,99843.84
2023-03-06T00:10:25.164Z,99836.06
2023-03-06T00:10:57.756Z,99837.84
2023-03-06T00:11:29.398Z,99837.91
2023-03-06T00:12:01.070Z,99842.16
2023-03-06T00:12:32.737Z,99843.00
2023-03-06T00:13:08.249Z,99838.69
2023-03-06T00:13:39.896Z,99845.53
2023-03-06T00:14:11.581Z,99837.00
2023-03-06T00:14:43.387Z,99838.75
2023-03-06T00:15:15.035Z,99838.75
2023-03-06T00:15:47.844Z,99836.16
2023-03-06T00:16:19.483Z,99835.34
2023-03-06T00:16:55.945Z,99837.00
2023-03-06T00:17:28.840Z,99836.94
2023-03-06T00:18:02.673Z,99837.00
2023-03-06T00:18:34.683Z,99841.41
2023-03-06T00:19:06.310Z,99837.13
2023-03-06T00:19:37.946Z,99834.56
2023-03-06T00:20:11.942Z,99838.06
2023-03-06T00:20:45.024Z,99833.88
2023-03-06T00:21:16.687Z,99836.44
2023-03-06T00:21:48.397Z,99834.91
2023-03-06T00:22:20.092Z,99835.69
2023-03-06T00:22:51.756Z,99836.56
2023-03-06T00:23:23.401Z,99839.94
2023-03-06T00:23:55.085Z,99845.03
2023-03-06T00:24:26.759Z,99838.25
2023-03-06T00:24:58.591Z,99833.94
2023-03-06T00:25:30.651Z,99835.69
2023-03-06T00:26:02.519Z,99832.19
2023-03-06T00:26:35.678Z,99831.19
2023-03-06T00:27:07.355Z,99829.50
2023-03-06T00:27:39.098Z,99833.88
2023-03-06T00:28:12.293Z,99833.03
2023-03-06T00:28:44.275Z,99825.28
2023-03-06T00:29:15.909Z,99829.69
2023-03-06T00:29:49.783Z,99828.84
2023-03-06T00:30:23.425Z,99829.69
2023-03-06T00:30:55.077Z,99832.19
2023-03-06T00:31:26.743Z,99829.69
2023-03-06T00:31:58.437Z,99832.19
2023-03-06T00:32:30.098Z,99832.19
2023-03-06T00:33:01.801Z,99835.50
2023-03-06T00:33:33.457Z,99828.63
2023-03-06T00:34:05.139Z,99826.88
2023-03-06T00:34:36.825Z,99828.63
2023-03-06T00:35:08.799Z,99825.97
2023-03-06T00:35:41.617Z,99825.00
2023-03-06T00:36:13.280Z,99823.34
2023-03-06T00:36:44.980Z,99828.56
2023-03-06T00:37:16.635Z,99826.03
2023-03-06T00:37:48.344Z,99821.75
2023-03-06T00:38:20.105Z,99821.75
2023-03-06T00:38:51.775Z,99822.56
2023-03-06T00:39:23.623Z,99826.91
2023-03-06T00:39:55.448Z,99828.72
2023-03-06T00:40:27.470Z,99824.41
2023-03-06T00:40:59.836Z,99821.72
2023-03-06T00:41:31.492Z,99826.81
2023-03-06T00:42:03.133Z,99825.97
2023-03-06T00:42:34.859Z,99831.22
2023-03-06T00:43:06.554Z,99826.91
2023-03-06T00:43:38.533Z,99821.75
2023-03-06T00:44:10.189Z,99824.41
2023-03-06T00:44:42.137Z,99825.22
2023-03-06T00:45:14.497Z,99826.91
2023-03-06T00:45:46.179Z,99826.03
2023-03-06T00:46:17.884Z,99819.97
2023-03-06T00:46:49.573Z,99823.47
2023-03-06T00:47:21.364Z,99825.22
2023-03-06T00:47:53.035Z,99822.59
2023-03-06T00:48:24.721Z,99819.97
2023-03-06T00:48:56.453Z,99823.34
2023-03-06T00:49:28.089Z,99825.97
2023-03-06T00:49:59.765Z,99817.34
2023-03-06T00:50:31.396Z,99815.47
2023-03-06T00:51:03.083Z,99818.88
2023-03-06T00:51:34.792Z,99821.47
2023-03-06T00:52:06.475Z,99823.34
2023-03-06T00:52:38.408Z,99818.31
2023-03-06T00:53:11.125Z,99819.06
2023-03-06T00:53:42.848Z,99816.50
2023-03-06T00:54:14.699Z,99817.41
2023-03-06T00:54:46.377Z,99807.09
2023-03-06T00:55:18.107Z,99817.28
2023-03-06T00:55:50.797Z,99813.13
2023-03-06T00:56:22.505Z,99807.00
2023-03-06T00:56:54.185Z,99811.22
2023-03-06T00:57:25.993Z,99804.50
2023-03-06T00:57:57.676Z,99810.44
2023-03-06T00:58:29.345Z,99808.69
2023-03-06T00:59:01.002Z,99813.00
2023-03-06T00:59:32.641Z,99807.78
2023-03-06T01:00:06.210Z,99797.53
2023-03-06T01:00:38.483Z,99794.13
2023-03-06T01:01:10.217Z,99799.22
2023-03-06T01:01:42.119Z,99794.13
2023-03-06T01:02:13.873Z,99792.38
2023-03-06T01:02:45.572Z,99792.31
2023-03-06T01:03:17.291Z,99798.38
2023-03-06T01:03:48.979Z,99798.44
2023-03-06T01:04:21.120Z,99797.59
2023-03-06T01:04:52.747Z,99794.94
2023-03-06T01:05:24.898Z,99802.56
2023-03-06T01:05:56.704Z,99798.38
2023-03-06T01:06:28.386Z,99797.41
2023-03-06T01:07:00.033Z,99795.72
2023-03-06T01:07:34.068Z,99796.56
2023-03-06T01:08:06.742Z,99794.88
2023-03-06T01:08:38.527Z,99791.41
2023-03-06T01:09:10.265Z,99800.88
2023-03-06T01:09:41.920Z,99800.13
2023-03-06T01:10:13.689Z,99801.72
2023-03-06T01:10:45.357Z,99794.06
2023-03-06T01:11:17.021Z,99797.41
2023-03-06T01:11:48.664Z,99798.38
2023-03-06T01:12:22.841Z,99800.06
2023-03-06T01:12:55.283Z,99794.19
2023-03-06T01:13:27.016Z,99803.66
2023-03-06T01:13:58.665Z,99796.78
2023-03-06T01:14:31.490Z,99793.28
2023-03-06T01:15:04.507Z,99784.69
2023-03-06T01:15:36.555Z,99788.13
2023-03-06T01:16:13.786Z,99789.03
2023-03-06T01:16:46.732Z,99794.19
2023-03-06T01:17:18.418Z,99780.31
2023-03-06T01:17:56.586Z,99788.06
2023-03-06T01:18:28.212Z,99784.56
2023-03-06T01:19:00.016Z,99788.06
2023-03-06T01:19:31.689Z,99784.75
2023-03-06T01:20:04.269Z,99786.38
2023-03-06T01:20:35.908Z,99784.63
2023-03-06T01:21:07.924Z,99788.75
2023-03-06T01:21:39.904Z,99787.09
2023-03-06T01:22:11.584Z,99788.88
2023-03-06T01:22:43.502Z,99790.56
2023-03-06T01:23:15.173Z,99783.72
2023-03-06T01:23:47.497Z,99781.09
2023-03-06T01:24:19.123Z,99785.34
2023-03-06T01:24:50.758Z,99787.91
2023-03-06T01:25:25.177Z,99783.50
2023-03-06T01:25:57.200Z,99784.28
2023-03-06T01:26:28.902Z,99786.94
2023-03-06T01:27:00.556Z,99782.66
2023-03-06T01:27:32.441Z,99786.88
2023-03-06T01:28:04.182Z,99786.78
2023-03-06T01:28:37.782Z,99785.88
2023-03-06T01:29:09.780Z,99789.34
2023-03-06T01:29:41.638Z,99786.78
2023-03-06T01:30:13.675Z,99785.88
2023-03-06T01:30:45.299Z,99780.03
2023-03-06T01:31:16.990Z,99779.31
2023-03-06T01:31:48.735Z,99781.03
2023-03-06T01:32:21.488Z,99777.44
2023-03-06T01:32:53.200Z,99783.38
2023-03-06T01:33:24.935Z,99785.78
2023-03-06T01:33:56.647Z,99775.47
2023-03-06T01:34:28.331Z,99774.56
2023-03-06T01:34:59.996Z,99774.56
2023-03-06T01:35:31.707Z,99775.47
2023-03-06T01:36:07.132Z,99777.09
2023-03-06T01:36:38.907Z,99769.63
2023-03-06T01:37:10.596Z,99774.72
2023-03-06T01:37:42.537Z,99773.00
2023-03-06T01:38:14.769Z,99770.41
2023-03-06T01:38:46.413Z,99772.81
2023-03-06T01:39:18.085Z,99771.91
2023-03-06T01:39:49.985Z,99772.91
2023-03-06T01:40:21.810Z,99772.97
2023-03-06T01:40:53.478Z,99776.31
2023-03-06T01:41:25.140Z,99775.41
2023-03-06T01:41:56.798Z,99770.41
2023-03-06T01:42:28.477Z,99778.22
2023-03-06T01:43:09.650Z,99773.19
2023-03-06T01:43:44.215Z,99770.53
2023-03-06T01:44:15.883Z,99766.34
2023-03-06T01:45:03.524Z,99771.56
2023-03-06T01:45:35.197Z,99773.19
2023-03-06T01:46:24.903Z,99769.63
2023-03-06T01:46:56.617Z,99765.31
2023-03-06T01:47:28.637Z,99772.13
2023-03-06T01:48:00.285Z,99771.28
2023-03-06T01:48:31.930Z,99767.78
2023-03-06T01:49:06.556Z,99772.06
2023-03-06T01:49:41.187Z,99760.81
2023-03-06T01:50:13.228Z,99758.19
2023-03-06T01:50:45.048Z,99770.25
2023-03-06T01:51:17.367Z,99765.84
2023-03-06T01:52:04.697Z,99773.56
2023-03-06T01:52:45.500Z,99774.41
2023-03-06T01:53:18.611Z,99766.69
2023-03-06T01:53:52.390Z,99774.41
2023-03-06T01:54:39.352Z,99777.75
2023-03-06T01:55:18.122Z,99776.00
2023-03-06T01:55:50.161Z,99776.91
2023-03-06T01:56:23.591Z,99774.28
2023-03-06T01:57:02.276Z,99777.69
2023-03-06T01:57:38.531Z,99775.25
2023-03-06T01:58:16.015Z,99775.25
2023-03-06T01:58:49.641Z,99773.50
2023-03-06T01:59:23.861Z,99773.59
2023-03-06T02:00:20.739Z,99770.00
2023-03-06T02:00:52.772Z,99774.22
2023-03-06T02:01:24.701Z,99777.53
2023-03-06T02:02:01.689Z,99768.94
2023-03-06T02:02:33.652Z,99775.00
2023-03-06T02:03:14.925Z,99773.28
2023-03-06T02:03:49.912Z,99772.47
2023-03-06T02:04:21.796Z,99764.78
2023-03-06T02:04:53.419Z,99767.44
2023-03-06T02:05:25.270Z,99771.69
2023-03-06T02:05:59.342Z,99772.59
2023-03-06T02:06:31.010Z,99771.63
2023-03-06T02:07:06.528Z,99779.31
2023-03-06T02:07:38.755Z,99774.09
2023-03-06T02:08:13.940Z,99769.78
2023-03-06T02:08:48.955Z,99764.56
2023-03-06T02:09:20.765Z,99768.03
2023-03-06T02:09:52.472Z,99763.72
2023-03-06T02:10:24.459Z,99762.81
2023-03-06T02:11:15.614Z,99757.59
2023-03-06T02:11:47.506Z,99757.50
2023-03-06T02:12:21.904Z,99767.84
2023-03-06T02:12:53.670Z,99760.91
2023-03-06T02:13:25.431Z,99765.03
2023-03-06T02:13:57.682Z,99767.75
2023-03-06T02:14:30.189Z,99758.31
2023-03-06T02:15:02.342Z,99755.78
2023-03-06T02:15:34.021Z,99760.91
2023-03-06T02:16:06.737Z,99763.28
2023-03-06T02:16:39.078Z,99763.22
2023-03-06T02:17:13.894Z,99760.59
2023-03-06T02:17:47.598Z,99760.59
2023-03-06T02:18:19.257Z,99765.63
2023-03-06T02:18:51.579Z,99772.41
2023-03-06T02:19:46.272Z,99762.97
2023-03-06T02:20:20.948Z,99761.38
2023-03-06T02:20:59.500Z,99758.84
2023-03-06T02:21:35.552Z,99757.94
2023-03-06T02:22:07.323Z,99763.13
2023-03-06T02:23:05.953Z,99760.31
2023-03-06T02:24:03.596Z,99762.97
2023-03-06T02:24:45.788Z,99758.63
2023-03-06T02:25:40.963Z,99761.06
2023-03-06T02:26:13.649Z,99759.38
2023-03-06T02:26:47.665Z,99764.63
2023-03-06T02:27:19.965Z,99762.91
2023-03-06T02:27:51.648Z,99758.66
2023-03-06T02:28:24.090Z,99753.44
2023-03-06T02:28:57.588Z,99756.03
2023-03-06T02:29:30.336Z,99757.94
2023-03-06T02:30:06.821Z,99756.13
2023-03-06T02:30:40.098Z,99755.38
2023-03-06T02:31:28.076Z,99757.19
2023-03-06T02:31:59.854Z,99756.28
2023-03-06T02:32:31.523Z,99759.56
2023-03-06T02:33:03.572Z,99762.97
2023-03-06T02:33:35.228Z,99759.44
2023-03-06T02:34:15.831Z,99752.53
2023-03-06T02:34:56.052Z,99758.41
2023-03-06T02:35:31.350Z,99754.09
2023-03-06T02:36:06.406Z,99751.56
2023-03-06T02:36:45.540Z,99750.72
2023-03-06T02:37:17.356Z,99754.09
2023-03-06T02:37:49.962Z,99755.13
2023-03-06T02:38:27.746Z,99762.91
2023-03-06T02:39:00.038Z,99752.78
2023-03-06T02:39:38.005Z,99759.50
2023-03-06T02:40:13.475Z,99753.47
2023-03-06T02:40:49.664Z,99762.03
2023-03-06T02:41:21.309Z,99753.44
2023-03-06T02:41:53.015Z,99753.38
2023-03-06T02:42:26.637Z,99760.28
2023-03-06T02:42:59.737Z,99757.72
2023-03-06T02:43:35.848Z,99755.91
2023-03-06T02:44:07.742Z,99754.28
2023-03-06T02:44:39.413Z,99756.81
2023-03-06T02:45:15.107Z,99754.09
2023-03-06T02:45:50.119Z,99758.41
2023-03-06T02:46:21.814Z,99761.06
2023-03-06T02:46:53.532Z,99756.03
2023-03-06T02:47:25.251Z,99755.91
2023-03-06T02:47:56.912Z,99757.50
2023-03-06T02:48:28.610Z,99759.38
2023-03-06T02:49:00.262Z,99758.47
2023-03-06T02:49:31.887Z,99753.25
2023-03-06T02:50:03.756Z,99755.81
2023-03-06T02:50:35.444Z,99754.16
2023-03-06T02:51:07.087Z,99756.72
2023-03-06T02:51:38.724Z,99755.91
2023-03-06T02:52:10.393Z,99755.75
2023-03-06T02:52:42.025Z,99764.31
2023-03-06T02:53:16.433Z,99761.75
2023-03-06T02:53:48.112Z,99755.75
2023-03-06T02:54:19.888Z,99762.50
2023-03-06T02:54:51.593Z,99755.59
2023-03-06T02:55:23.453Z,99753.84
2023-03-06T02:55:55.129Z,99755.66
2023-03-06T02:56:26.902Z,99759.84
2023-03-06T02:56:58.559Z,99755.53
2023-03-06T02:57:30.254Z,99754.56
2023-03-06T02:58:02.419Z,99753.78
2023-03-06T02:58:34.135Z,99750.34
2023-03-06T02:59:05.791Z,99751.19
2023-03-06T02:59:37.458Z,99757.16
2023-03-06T03:00:10.398Z,99753.66
2023-03-06T03:00:42.318Z,99757.09
2023-03-06T03:01:13.991Z,99755.28
2023-03-06T03:01:47.769Z,99750.94
2023-03-06T03:02:19.551Z,99752.75
2023-03-06T03:02:51.745Z,99753.66
2023-03-06T03:03:23.401Z,99750.94
2023-03-06T03:03:55.066Z,99750.03
2023-03-06T03:04:27.950Z,99752.63
2023-03-06T03:04:59.651Z,99757.72
2023-03-06T03:05:31.960Z,99752.53
2023-03-06T03:06:05.831Z,99757.69
2023-03-06T03:06:37.627Z,99755.03
2023-03-06T03:07:09.298Z,99755.13
2023-03-06T03:07:41.122Z,99752.53
2023-03-06T03:08:13.004Z,99755.09
2023-03-06T03:08:44.825Z,99755.03
2023-03-06T03:09:16.656Z,99756.72
2023-03-06T03:09:48.402Z,99754.19
2023-03-06T03:10:20.201Z,99749.09
2023-03-06T03:10:52.130Z,99751.53
2023-03-06T03:11:23.787Z,99750.69
2023-03-06T03:11:55.681Z,99752.38
2023-03-06T03:12:28.732Z,99747.22
2023-03-06T03:13:00.466Z,99749.03
2023-03-06T03:13:32.901Z,99748.97
2023-03-06T03:14:04.508Z,99747.22
2023-03-06T03:14:36.166Z,99753.22
2023-03-06T03:15:09.011Z,99748.97
2023-03-06T03:15:41.281Z,99751.53
2023-03-06T03:16:15.545Z,99752.53
2023-03-06T03:16:47.405Z,99757.63
2023-03-06T03:17:19.048Z,99755.88
2023-03-06T03:17:50.733Z,99749.09
2023-03-06T03:18:22.358Z,99757.63
2023-03-06T03:18:54.069Z,99753.34
2023-03-06T03:19:26.013Z,99755.03
2023-03-06T03:19:57.795Z,99756.88
2023-03-06T03:20:29.446Z,99755.88
2023-03-06T03:21:01.562Z,99759.34
2023-03-06T03:21:33.221Z,99752.38
2023-03-06T03:22:05.030Z,99759.13
2023-03-06T03:22:36.748Z,99758.25
2023-03-06T03:23:08.401Z,99761.63
2023-03-06T03:23:40.731Z,99750.44
2023-03-06T03:24:12.395Z,99751.28
2023-03-06T03:24:44.321Z,99751.22
2023-03-06T03:25:17.315Z,99752.97
2023-03-06T03:25:49.040Z,99748.63
2023-03-06T03:26:21.933Z,99749.47
2023-03-06T03:26:53.617Z,99748.72
2023-03-06T03:27:25.312Z,99747.06
2023-03-06T03:27:56.966Z,99747.06
2023-03-06T03:28:28.736Z,99743.03
2023-03-06T03:29:00.432Z,99748.06
2023-03-06T03:29:32.707Z,99742.13
2023-03-06T03:30:05.000Z,99745.59
2023-03-06T03:30:36.644Z,99744.03
2023-03-06T03:31:10.238Z,99741.34
2023-03-06T03:31:42.023Z,99736.94
2023-03-06T03:32:13.691Z,99742.13
2023-03-06T03:32:45.523Z,99743.03
2023-03-06T03:33:17.171Z,99740.38
2023-03-06T03:33:49.069Z,99737.78
2023-03-06T03:34:21.690Z,99741.06
2023-03-06T03:34:55.469Z,99734.13
2023-03-06T03:35:27.189Z,99744.44
2023-03-06T03:36:00.959Z,99740.06
2023-03-06T03:36:32.599Z,99735.88
2023-03-06T03:37:04.668Z,99736.81
2023-03-06T03:37:36.538Z,99741.97
2023-03-06T03:38:08.266Z,99743.72
2023-03-06T03:38:40.132Z,99741.88
2023-03-06T03:39:11.912Z,99739.38
2023-03-06T03:39:43.653Z,99742.75
2023-03-06T03:40:15.295Z,99742.75
2023-03-06T03:40:46.951Z,99735.91
2023-03-06T03:41:18.770Z,99737.72
2023-03-06T03:41:50.422Z,99742.88
2023-03-06T03:42:22.374Z,99735.19
2023-03-06T03:42:54.035Z,99740.31
2023-03-06T03:43:25.695Z,99739.28
2023-03-06T03:43:57.324Z,99731.56
2023-03-06T03:44:28.991Z,99739.38
2023-03-06T03:45:00.634Z,99741.22
2023-03-06T03:45:32.289Z,99732.56
2023-03-06T03:46:04.410Z,99736.69
2023-03-06T03:46:36.519Z,99729.97
2023-03-06T03:47:08.227Z,99730.81
2023-03-06T03:47:40.518Z,99733.47
2023-03-06T03:48:12.352Z,99741.06
2023-03-06T03:48:44.153Z,99736.13
2023-03-06T03:49:15.908Z,99740.31
2023-03-06T03:49:47.671Z,99734.28
2023-03-06T03:50:19.518Z,99729.19
2023-03-06T03:50:51.249Z,99736.13
2023-03-06T03:51:23.205Z,99736.88
2023-03-06T03:51:54.848Z,99734.28
2023-03-06T03:52:26.505Z,99733.38
2023-03-06T03:52:58.124Z,99725.72
2023-03-06T03:53:29.768Z,99727.44
2023-03-06T03:54:01.386Z,99729.19
2023-03-06T03:54:33.041Z,99725.72
2023-03-06T03:55:05.570Z,99725.84
2023-03-06T03:55:37.428Z,99731.00
2023-03-06T03:56:09.110Z,99729.31
2023-03-06T03:56:41.758Z,99728.53
2023-03-06T03:57:13.413Z,99727.63
2023-03-06T03:57:45.081Z,99724.97
2023-03-06T03:58:16.791Z,99724.97
2023-03-06T03:58:48.619Z,99731.13
2023-03-06T03:59:20.969Z,99733.72
2023-03-06T03:59:52.790Z,99732.09
2023-03-06T04:00:24.515Z,99731.13
2023-03-06T04:00:56.256Z,99732.22
2023-03-06T04:01:28.129Z,99727.88
2023-03-06T04:02:00.119Z,99733.19
2023-03-06T04:02:31.814Z,99733.19
2023-03-06T04:03:03.547Z,99735.75
2023-03-06T04:03:35.379Z,99729.75
2023-03-06T04:04:07.286Z,99728.94
2023-03-06T04:04:38.972Z,99732.28
2023-03-06T04:05:15.518Z,99731.50
2023-03-06T04:05:47.305Z,99734.84
2023-03-06T04:06:19.611Z,99728.03
2023-03-06T04:06:51.465Z,99734.09
2023-03-06T04:07:23.085Z,99730.59
2023-03-06T04:07:54.770Z,99734.94
2023-03-06T04:08:27.093Z,99737.59
2023-03-06T04:08:58.926Z,99745.25
2023-03-06T04:09:49.267Z,99736.91
2023-03-06T04:10:21.056Z,99739.56
2023-03-06T04:10:54.306Z,99738.66
2023-03-06T04:11:26.014Z,99736.91
2023-03-06T04:11:57.672Z,99742.22
2023-03-06T04:12:29.341Z,99740.47
2023-03-06T04:13:01.116Z,99747.25
2023-03-06T04:13:33.179Z,99745.44
2023-03-06T04:14:04.890Z,99746.34
2023-03-06T04:14:36.602Z,99743.00
2023-03-06T04:15:09.106Z,99736.16
2023-03-06T04:15:40.744Z,99744.72
2023-03-06T04:16:12.489Z,99743.00
2023-03-06T04:16:44.260Z,99740.25
2023-03-06T04:17:15.923Z,99748.09
2023-03-06T04:17:47.761Z,99743.00
2023-03-06T04:18:20.806Z,99740.41
2023-03-06T04:18:52.448Z,99743.91
2023-03-06T04:19:24.336Z,99739.56
2023-03-06T04:19:56.003Z,99739.63
2023-03-06T04:20:28.247Z,99737.16
2023-03-06T04:20:59.884Z,99737.88
2023-03-06T04:21:31.573Z,99736.22
2023-03-06T04:22:03.237Z,99737.16
2023-03-06T04:22:34.887Z,99743.13
2023-03-06T04:23:06.519Z,99739.56
2023-03-06T04:23:38.231Z,99739.81
2023-03-06T04:24:09.876Z,99738.19
2023-03-06T04:24:41.531Z,99744.13
2023-03-06T04:25:13.289Z,99741.47
2023-03-06T04:25:46.328Z,99733.81
2023-03-06T04:26:18.040Z,99738.91
2023-03-06T04:26:49.693Z,99732.06
2023-03-06T04:27:21.350Z,99732.00
2023-03-06T04:27:52.983Z,99738.06
2023-03-06T04:28:24.993Z,99731.16
2023-03-06T04:28:56.696Z,99735.47
2023-03-06T04:29:28.401Z,99733.03
2023-03-06T04:30:00.158Z,99732.13
2023-03-06T04:30:31.908Z,99737.22
2023-03-06T04:31:03.732Z,99733.75
2023-03-06T04:31:35.429Z,99736.31
2023-03-06T04:32:07.313Z,99734.47
2023-03-06T04:32:39.048Z,99737.06
2023-03-06T04:33:10.704Z,99734.50
2023-03-06T04:33:42.328Z,99726.72
2023-03-06T04:34:13.973Z,99730.22
2023-03-06T04:34:45.617Z,99730.22
2023-03-06T04:35:17.448Z,99726.72
2023-03-06T04:35:49.224Z,99731.88
2023-03-06T04:36:45.160Z,99732.78
2023-03-06T04:37:21.532Z,99732.00
2023-03-06T04:37:53.264Z,99732.00
2023-03-06T04:38:24.917Z,99737.28
2023-03-06T04:38:57.014Z,99729.63
2023-03-06T04:39:28.706Z,99727.06
2023-03-06T04:40:00.361Z,99729.63
2023-03-06T04:40:34.700Z,99733.03
2023-03-06T04:41:06.429Z,99737.28
2023-03-06T04:41:38.948Z,99723.63
2023-03-06T04:42:10.733Z,99726.19
2023-03-06T04:42:42.353Z,99726.22
2023-03-06T04:43:14.091Z,99727.94
2023-03-06T04:43:46.324Z,99723.63
2023-03-06T04:44:18.011Z,99730.53
2023-03-06T04:44:49.639Z,99729.03
2023-03-06T04:45:21.385Z,99729.78
2023-03-06T04:45:53.108Z,99730.69
2023-03-06T04:46:24.770Z,99732.38
2023-03-06T04:46:56.421Z,99727.06
2023-03-06T04:47:28.305Z,99726.22
2023-03-06T04:48:00.630Z,99727.97
2023-03-06T04:48:32.424Z,99727.22
2023-03-06T04:49:04.258Z,99730.63
2023-03-06T04:49:36.152Z,99726.31
2023-03-06T04:50:09.035Z,99727.13
2023-03-06T04:50:40.921Z,99722.81
2023-03-06T04:51:13.652Z,99722.94
2023-03-06T04:51:45.267Z,99725.53
2023-03-06T04:52:16.871Z,99722.94
2023-03-06T04:52:48.690Z,99727.34
2023-03-06T04:53:21.364Z,99721.34
2023-03-06T04:53:53.033Z,99720.38
2023-03-06T04:54:24.776Z,99726.44
2023-03-06T04:54:56.424Z,99721.22
2023-03-06T04:55:28.898Z,99726.38
2023-03-06T04:56:00.545Z,99722.03
2023-03-06T04:56:32.223Z,99721.13
2023-03-06T04:57:04.880Z,99724.63
2023-03-06T04:57:41.231Z,99713.47
2023-03-06T04:58:14.963Z,99722.94
2023-03-06T04:58:46.629Z,99720.44
2023-03-06T04:59:18.347Z,99723.84
2023-03-06T04:59:50.693Z,99721.13
2023-03-06T05:00:25.237Z,99721.97
2023-03-06T05:00:56.931Z,99730.69
2023-03-06T05:01:28.600Z,99722.13
2023-03-06T05:02:00.287Z,99719.41
2023-03-06T05:02:33.411Z,99716.03
2023-03-06T05:03:05.124Z,99729.03
2023-03-06T05:03:36.787Z,99722.19
2023-03-06T05:04:08.474Z,99720.50
2023-03-06T05:04:40.139Z,99717.00
2023-03-06T05:05:13.701Z,99726.53
2023-03-06T05:05:45.335Z,99719.63
2023-03-06T05:06:17.080Z,99730.75
2023-03-06T05:06:48.700Z,99723.84
2023-03-06T05:07:20.358Z,99728.19
2023-03-06T05:07:52.682Z,99725.78
2023-03-06T05:08:24.388Z,99725.06
2023-03-06T05:08:56.058Z,99725.09
2023-03-06T05:09:27.742Z,99724.16
2023-03-06T05:10:00.501Z,99723.19
2023-03-06T05:10:32.209Z,99729.13
2023-03-06T05:11:04.078Z,99725.69
2023-03-06T05:11:35.774Z,99724.94
2023-03-06T05:12:07.669Z,99725.78
2023-03-06T05:12:39.560Z,99729.13
2023-03-06T05:13:12.372Z,99724.09
2023-03-06T05:13:44.161Z,99719.16
2023-03-06T05:14:15.797Z,99726.00
2023-03-06T05:14:48.157Z,99725.25
2023-03-06T05:15:20.233Z,99719.31
2023-03-06T05:15:52.234Z,99722.66
2023-03-06T05:16:23.935Z,99725.97
2023-03-06T05:16:55.646Z,99726.75
2023-03-06T05:17:27.292Z,99727.69
2023-03-06T05:17:59.176Z,99726.00
2023-03-06T05:18:31.412Z,99720.06
2023-03-06T05:19:03.404Z,99722.66
2023-03-06T05:19:35.037Z,99724.25
2023-03-06T05:20:09.696Z,99721.69
2023-03-06T05:20:41.374Z,99728.72
2023-03-06T05:21:13.443Z,99730.41
2023-03-06T05:21:45.098Z,99729.63
2023-03-06T05:22:16.763Z,99722.72
2023-03-06T05:22:48.438Z,99724.34
2023-03-06T05:23:20.086Z,99722.59
2023-03-06T05:23:51.706Z,99722.66
2023-03-06T05:24:23.374Z,99722.53
2023-03-06T05:24:55.001Z,99716.53
2023-03-06T05:25:26.686Z,99719.06
2023-03-06T05:25:58.383Z,99724.09
2023-03-06T05:26:30.079Z,99720.59
2023-03-06T05:27:01.742Z,99724.88
2023-03-06T05:27:34.316Z,99730.88
2023-03-06T05:28:06.902Z,99724.09
2023-03-06T05:28:39.053Z,99727.66
2023-03-06T05:29:10.733Z,99726.00
2023-03-06T05:29:42.392Z,99723.44
2023-03-06T05:30:14.957Z,99725.16
2023-03-06T05:30:46.874Z,99726.00
2023-03-06T05:31:18.702Z,99726.00
2023-03-06T05:31:50.468Z,99726.00
2023-03-06T05:32:22.947Z,99722.59
2023-03-06T05:32:54.731Z,99723.44
2023-03-06T05:33:26.708Z,99726.13
2023-03-06T05:33:59.205Z,99727.13
2023-03-06T05:34:31.054Z,99727.13
2023-03-06T05:35:03.659Z,99722.78
2023-03-06T05:35:35.395Z,99727.94
2023-03-06T05:36:09.272Z,99717.66
2023-03-06T05:36:41.336Z,99722.66
2023-03-06T05:37:13.057Z,99728.72
2023-03-06T05:37:44.962Z,99721.81
2023-03-06T05:38:16.952Z,99719.25
2023-03-06T05:38:48.784Z,99726.91
2023-03-06T05:39:20.966Z,99726.91
2023-03-06T05:39:52.687Z,99726.97
2023-03-06T05:40:24.456Z,99726.97
2023-03-06T05:40:56.183Z,99728.66
2023-03-06T05:41:27.915Z,99722.66
2023-03-06T05:41:59.744Z,99720.06
2023-03-06T05:42:31.403Z,99732.06
2023-03-06T05:43:03.056Z,99723.44
2023-03-06T05:43:34.694Z,99725.97
2023-03-06T05:44:06.324Z,99729.38
2023-03-06T05:44:38.060Z,99724.34
2023-03-06T05:45:10.457Z,99728.25
2023-03-06T05:45:42.146Z,99727.72
2023-03-06T05:46:14.254Z,99726.66
2023-03-06T05:46:45.914Z,99734.97
2023-03-06T05:47:17.615Z,99734.47
2023-03-06T05:47:49.272Z,99730.47
2023-03-06T05:48:20.907Z,99733.94
2023-03-06T05:48:55.368Z,99728.94
2023-03-06T05:49:31.201Z,99730.78
2023-03-06T05:50:05.382Z,99728.25
2023-03-06T05:50:37.038Z,99726.59
2023-03-06T05:51:10.907Z,99725.22
2023-03-06T05:51:42.689Z,99724.63
2023-03-06T05:52:15.020Z,99734.88
2023-03-06T05:52:46.658Z,99728.78
2023-03-06T05:53:18.311Z,99727.06
2023-03-06T05:53:50.084Z,99733.94
2023-03-06T05:54:21.819Z,99727.88
2023-03-06T05:54:54.664Z,99725.28
2023-03-06T05:55:26.331Z,99723.63
2023-03-06T05:55:57.904Z,99730.53
2023-03-06T05:56:29.575Z,99727.22
2023-03-06T05:57:01.958Z,99734.19
2023-03-06T05:57:33.700Z,99728.25
2023-03-06T05:58:05.347Z,99722.19
2023-03-06T05:58:37.967Z,99730.81
2023-03-06T05:59:09.611Z,99730.81
2023-03-06T05:59:41.268Z,99735.25
2023-03-06T06:00:14.862Z,99727.44
2023-03-06T06:00:46.641Z,99725.59
2023-03-06T06:01:20.629Z,99733.34
2023-03-06T06:01:52.268Z,99731.69
2023-03-06T06:02:23.885Z,99723.97
2023-03-06T06:02:55.621Z,99729.13
2023-03-06T06:03:27.537Z,99732.59
2023-03-06T06:03:59.204Z,99724.78
2023-03-06T06:04:30.952Z,99729.09
2023-03-06T06:05:03.686Z,99730.81
2023-03-06T06:05:39.548Z,99727.38
2023-03-06T06:06:14.395Z,99727.38
2023-03-06T06:06:46.056Z,99724.88
2023-03-06T06:07:17.760Z,99725.69
2023-03-06T06:07:49.539Z,99734.25
2023-03-06T06:08:21.563Z,99729.97
2023-03-06T06:08:53.861Z,99729.09
2023-03-06T06:09:26.154Z,99725.66
2023-03-06T06:09:57.821Z,99729.84
2023-03-06T06:10:29.470Z,99729.03
2023-03-06T06:11:01.547Z,99734.19
2023-03-06T06:11:33.215Z,99730.81
2023-03-06T06:12:05.178Z,99730.75
2023-03-06T06:12:36.868Z,99734.03
2023-03-06T06:13:08.949Z,99733.22
2023-03-06T06:13:41.994Z,99734.03
2023-03-06T06:14:14.813Z,99736.75
2023-03-06T06:14:46.480Z,99727.22
2023-03-06T06:15:18.177Z,99739.22
2023-03-06T06:15:49.886Z,99732.38
2023-03-06T06:16:21.591Z,99740.94
2023-03-06T06:16:53.714Z,99741.78
2023-03-06T06:17:25.393Z,99737.41
2023-03-06T06:17:57.657Z,99736.47
2023-03-06T06:18:29.332Z,99745.94
2023-03-06T06:19:01.039Z,99746.72
2023-03-06T06:19:32.819Z,99741.56
2023-03-06T06:20:04.830Z,99748.47
2023-03-06T06:20:37.871Z,99751.03
2023-03-06T06:21:11.760Z,99740.72
2023-03-06T06:21:43.411Z,99746.78
2023-03-06T06:22:15.145Z,99751.88
2023-03-06T06:22:46.838Z,99753.69
2023-03-06T06:23:18.536Z,99745.94
2023-03-06T06:23:50.166Z,99743.47